sensor_id;sensor_type;location;lat;lon;timestamp;P1;durP1;ratioP1;P2;durP2;ratioP2
11839;SDS011;5979;50.800;4.904;2023-06-14T00:01:24;7.32;;;6.13;;
11839;SDS011;5979;50.800;4.904;2023-06-14T00:03:50;6.57;;;6.07;;
11839;SDS011;5979;50.800;4.904;2023-06-14T00:06:16;6.13;;;5.63;;
11839;SDS011;5979;50.800;4.904;2023-06-14T00:08:43;5.93;;;5.53;;
11839;SDS011;5979;50.800;4.904;2023-06-14T00:11:08;6.00;;;5.50;;
11839;SDS011;5979;50.800;4.904;2023-06-14T00:13:34;6.88;;;6.38;;
11839;SDS011;5979;50.800;4.904;2023-06-14T00:16:00;6.63;;;6.10;;
11839;SDS011;5979;50.800;4.904;2023-06-14T00:18:25;6.72;;;5.82;;
11839;SDS011;5979;50.800;4.904;2023-06-14T00:20:54;6.82;;;6.22;;
11839;SDS011;5979;50.800;4.904;2023-06-14T00:23:20;7.15;;;6.40;;
11839;SDS011;5979;50.800;4.904;2023-06-14T00:25:46;7.72;;;7.05;;
11839;SDS011;5979;50.800;4.904;2023-06-14T00:28:13;6.53;;;5.93;;
11839;SDS011;5979;50.800;4.904;2023-06-14T00:30:39;6.38;;;5.85;;
11839;SDS011;5979;50.800;4.904;2023-06-14T00:33:05;6.28;;;5.78;;
11839;SDS011;5979;50.800;4.904;2023-06-14T00:35:30;6.78;;;5.70;;
11839;SDS011;5979;50.800;4.904;2023-06-14T00:37:56;7.13;;;6.53;;
11839;SDS011;5979;50.800;4.904;2023-06-14T00:40:22;6.88;;;6.18;;
11839;SDS011;5979;50.800;4.904;2023-06-14T00:42:48;6.47;;;5.95;;
11839;SDS011;5979;50.800;4.904;2023-06-14T00:45:14;6.55;;;6.05;;
11839;SDS011;5979;50.800;4.904;2023-06-14T00:47:40;7.10;;;6.50;;
11839;SDS011;5979;50.800;4.904;2023-06-14T00:50:07;6.45;;;5.93;;
11839;SDS011;5979;50.800;4.904;2023-06-14T00:52:34;6.90;;;6.40;;
11839;SDS011;5979;50.800;4.904;2023-06-14T00:55:01;7.15;;;6.47;;
11839;SDS011;5979;50.800;4.904;2023-06-14T00:57:27;7.05;;;6.50;;
11839;SDS011;5979;50.800;4.904;2023-06-14T00:59:54;8.05;;;7.25;;
11839;SDS011;5979;50.800;4.904;2023-06-14T01:02:21;6.90;;;6.10;;
11839;SDS011;5979;50.800;4.904;2023-06-14T01:04:47;7.20;;;6.55;;
11839;SDS011;5979;50.800;4.904;2023-06-14T01:15:13;8.30;;;7.10;;
11839;SDS011;5979;50.800;4.904;2023-06-14T01:17:40;7.50;;;6.93;;
11839;SDS011;5979;50.800;4.904;2023-06-14T01:20:10;7.72;;;7.07;;
11839;SDS011;5979;50.800;4.904;2023-06-14T01:22:52;7.22;;;6.63;;
11839;SDS011;5979;50.800;4.904;2023-06-14T01:25:22;6.38;;;5.88;;
11839;SDS011;5979;50.800;4.904;2023-06-14T01:27:49;7.57;;;6.85;;
11839;SDS011;5979;50.800;4.904;2023-06-14T01:30:17;7.28;;;6.57;;
11839;SDS011;5979;50.800;4.904;2023-06-14T01:32:44;6.97;;;6.47;;
11839;SDS011;5979;50.800;4.904;2023-06-14T01:35:10;7.50;;;6.90;;
11839;SDS011;5979;50.800;4.904;2023-06-14T01:37:36;6.30;;;5.90;;
11839;SDS011;5979;50.800;4.904;2023-06-14T01:40:03;7.88;;;7.10;;
11839;SDS011;5979;50.800;4.904;2023-06-14T01:42:32;8.05;;;7.38;;
11839;SDS011;5979;50.800;4.904;2023-06-14T01:45:03;7.32;;;6.72;;
11839;SDS011;5979;50.800;4.904;2023-06-14T01:47:31;7.22;;;6.63;;
11839;SDS011;5979;50.800;4.904;2023-06-14T01:49:58;7.85;;;7.07;;
11839;SDS011;5979;50.800;4.904;2023-06-14T01:52:24;7.45;;;6.80;;
11839;SDS011;5979;50.800;4.904;2023-06-14T01:54:50;8.18;;;7.47;;
11839;SDS011;5979;50.800;4.904;2023-06-14T01:57:16;7.72;;;7.10;;
11839;SDS011;5979;50.800;4.904;2023-06-14T01:59:41;7.78;;;7.07;;
11839;SDS011;5979;50.800;4.904;2023-06-14T02:02:07;7.72;;;7.03;;
11839;SDS011;5979;50.800;4.904;2023-06-14T02:04:33;7.63;;;7.10;;
11839;SDS011;5979;50.800;4.904;2023-06-14T02:06:59;7.40;;;6.88;;
11839;SDS011;5979;50.800;4.904;2023-06-14T02:09:25;7.32;;;6.55;;
11839;SDS011;5979;50.800;4.904;2023-06-14T02:11:50;8.13;;;7.43;;
11839;SDS011;5979;50.800;4.904;2023-06-14T02:14:16;7.32;;;6.90;;
11839;SDS011;5979;50.800;4.904;2023-06-14T02:16:42;7.95;;;7.15;;
11839;SDS011;5979;50.800;4.904;2023-06-14T02:19:16;7.60;;;7.00;;
11839;SDS011;5979;50.800;4.904;2023-06-14T02:21:44;9.20;;;7.78;;
11839;SDS011;5979;50.800;4.904;2023-06-14T02:24:10;7.68;;;7.18;;
11839;SDS011;5979;50.800;4.904;2023-06-14T02:26:36;7.93;;;7.22;;
11839;SDS011;5979;50.800;4.904;2023-06-14T02:29:06;7.82;;;7.22;;
11839;SDS011;5979;50.800;4.904;2023-06-14T02:31:36;7.78;;;7.18;;
11839;SDS011;5979;50.800;4.904;2023-06-14T02:34:02;8.65;;;7.80;;
11839;SDS011;5979;50.800;4.904;2023-06-14T02:36:27;8.20;;;7.32;;
11839;SDS011;5979;50.800;4.904;2023-06-14T02:38:56;9.02;;;7.35;;
11839;SDS011;5979;50.800;4.904;2023-06-14T02:41:31;7.75;;;7.10;;
11839;SDS011;5979;50.800;4.904;2023-06-14T02:44:03;8.48;;;7.68;;
11839;SDS011;5979;50.800;4.904;2023-06-14T02:46:29;7.93;;;7.32;;
11839;SDS011;5979;50.800;4.904;2023-06-14T02:48:54;12.75;;;8.15;;
11839;SDS011;5979;50.800;4.904;2023-06-14T02:51:20;8.38;;;7.65;;
11839;SDS011;5979;50.800;4.904;2023-06-14T02:53:46;7.93;;;7.22;;
11839;SDS011;5979;50.800;4.904;2023-06-14T02:56:11;7.38;;;6.78;;
11839;SDS011;5979;50.800;4.904;2023-06-14T02:58:37;7.18;;;6.72;;
11839;SDS011;5979;50.800;4.904;2023-06-14T03:01:04;7.70;;;7.10;;
11839;SDS011;5979;50.800;4.904;2023-06-14T03:03:33;8.07;;;7.25;;
11839;SDS011;5979;50.800;4.904;2023-06-14T03:05:58;8.30;;;7.50;;
11839;SDS011;5979;50.800;4.904;2023-06-14T03:08:29;8.57;;;7.68;;
11839;SDS011;5979;50.800;4.904;2023-06-14T03:10:55;7.82;;;7.13;;
11839;SDS011;5979;50.800;4.904;2023-06-14T03:13:21;8.88;;;8.07;;
11839;SDS011;5979;50.800;4.904;2023-06-14T03:15:47;7.70;;;7.10;;
11839;SDS011;5979;50.800;4.904;2023-06-14T03:18:15;7.97;;;7.38;;
11839;SDS011;5979;50.800;4.904;2023-06-14T03:20:41;8.23;;;7.50;;
11839;SDS011;5979;50.800;4.904;2023-06-14T03:23:07;7.40;;;6.82;;
11839;SDS011;5979;50.800;4.904;2023-06-14T03:25:33;7.57;;;6.95;;
11839;SDS011;5979;50.800;4.904;2023-06-14T03:28:03;8.57;;;7.38;;
11839;SDS011;5979;50.800;4.904;2023-06-14T03:30:30;9.00;;;8.23;;
11839;SDS011;5979;50.800;4.904;2023-06-14T03:32:56;8.20;;;7.50;;
11839;SDS011;5979;50.800;4.904;2023-06-14T03:35:22;8.48;;;7.78;;
11839;SDS011;5979;50.800;4.904;2023-06-14T03:37:48;8.75;;;7.95;;
11839;SDS011;5979;50.800;4.904;2023-06-14T03:40:15;7.85;;;7.18;;
11839;SDS011;5979;50.800;4.904;2023-06-14T03:42:42;8.65;;;7.95;;
11839;SDS011;5979;50.800;4.904;2023-06-14T03:45:08;9.40;;;8.30;;
11839;SDS011;5979;50.800;4.904;2023-06-14T03:47:34;8.18;;;7.47;;
11839;SDS011;5979;50.800;4.904;2023-06-14T03:50:01;8.48;;;7.78;;
11839;SDS011;5979;50.800;4.904;2023-06-14T03:52:28;8.60;;;7.82;;
11839;SDS011;5979;50.800;4.904;2023-06-14T03:54:54;8.18;;;7.53;;
11839;SDS011;5979;50.800;4.904;2023-06-14T03:57:20;8.50;;;7.90;;
11839;SDS011;5979;50.800;4.904;2023-06-14T03:59:46;8.65;;;7.90;;
11839;SDS011;5979;50.800;4.904;2023-06-14T04:02:12;9.15;;;8.35;;
11839;SDS011;5979;50.800;4.904;2023-06-14T04:04:41;8.82;;;8.13;;
11839;SDS011;5979;50.800;4.904;2023-06-14T04:07:09;8.73;;;8.02;;
11839;SDS011;5979;50.800;4.904;2023-06-14T04:09:36;8.57;;;7.78;;
11839;SDS011;5979;50.800;4.904;2023-06-14T04:12:02;8.18;;;7.60;;
11839;SDS011;5979;50.800;4.904;2023-06-14T04:14:28;8.60;;;7.70;;
11839;SDS011;5979;50.800;4.904;2023-06-14T04:16:55;8.10;;;7.38;;
11839;SDS011;5979;50.800;4.904;2023-06-14T04:19:21;8.27;;;7.68;;
11839;SDS011;5979;50.800;4.904;2023-06-14T04:21:47;9.82;;;8.95;;
11839;SDS011;5979;50.800;4.904;2023-06-14T04:24:12;7.70;;;7.07;;
11839;SDS011;5979;50.800;4.904;2023-06-14T04:26:42;8.27;;;7.65;;
11839;SDS011;5979;50.800;4.904;2023-06-14T04:29:10;7.97;;;7.32;;
11839;SDS011;5979;50.800;4.904;2023-06-14T04:31:42;8.90;;;8.10;;
11839;SDS011;5979;50.800;4.904;2023-06-14T04:34:09;10.10;;;9.20;;
11839;SDS011;5979;50.800;4.904;2023-06-14T04:36:40;9.20;;;8.40;;
11839;SDS011;5979;50.800;4.904;2023-06-14T04:39:20;9.15;;;8.02;;
11839;SDS011;5979;50.800;4.904;2023-06-14T04:41:46;11.02;;;9.05;;
11839;SDS011;5979;50.800;4.904;2023-06-14T04:44:12;10.25;;;9.35;;
11839;SDS011;5979;50.800;4.904;2023-06-14T04:46:38;8.02;;;7.25;;
11839;SDS011;5979;50.800;4.904;2023-06-14T04:49:20;8.52;;;7.85;;
11839;SDS011;5979;50.800;4.904;2023-06-14T04:51:45;8.30;;;7.35;;
11839;SDS011;5979;50.800;4.904;2023-06-14T04:54:12;8.38;;;7.78;;
11839;SDS011;5979;50.800;4.904;2023-06-14T04:56:41;8.73;;;7.70;;
11839;SDS011;5979;50.800;4.904;2023-06-14T04:59:07;8.07;;;7.47;;
11839;SDS011;5979;50.800;4.904;2023-06-14T05:01:34;8.82;;;7.95;;
11839;SDS011;5979;50.800;4.904;2023-06-14T05:04:00;8.10;;;7.32;;
11839;SDS011;5979;50.800;4.904;2023-06-14T05:06:26;8.23;;;7.63;;
11839;SDS011;5979;50.800;4.904;2023-06-14T05:08:52;8.25;;;7.25;;
11839;SDS011;5979;50.800;4.904;2023-06-14T05:11:18;8.00;;;7.40;;
11839;SDS011;5979;50.800;4.904;2023-06-14T05:13:44;7.55;;;6.85;;
11839;SDS011;5979;50.800;4.904;2023-06-14T05:16:11;9.38;;;7.43;;
11839;SDS011;5979;50.800;4.904;2023-06-14T05:18:37;9.15;;;8.23;;
11839;SDS011;5979;50.800;4.904;2023-06-14T05:21:03;8.75;;;7.45;;
11839;SDS011;5979;50.800;4.904;2023-06-14T05:23:31;7.93;;;7.22;;
11839;SDS011;5979;50.800;4.904;2023-06-14T05:25:57;8.05;;;7.35;;
11839;SDS011;5979;50.800;4.904;2023-06-14T05:28:23;9.23;;;8.43;;
11839;SDS011;5979;50.800;4.904;2023-06-14T05:30:49;8.55;;;7.70;;
11839;SDS011;5979;50.800;4.904;2023-06-14T05:33:15;8.93;;;7.85;;
11839;SDS011;5979;50.800;4.904;2023-06-14T05:35:41;9.95;;;8.93;;
11839;SDS011;5979;50.800;4.904;2023-06-14T05:38:07;8.98;;;8.18;;
11839;SDS011;5979;50.800;4.904;2023-06-14T05:40:33;12.40;;;8.88;;
11839;SDS011;5979;50.800;4.904;2023-06-14T05:42:59;8.18;;;7.50;;
11839;SDS011;5979;50.800;4.904;2023-06-14T05:45:25;8.10;;;7.45;;
11839;SDS011;5979;50.800;4.904;2023-06-14T05:47:51;8.60;;;7.70;;
11839;SDS011;5979;50.800;4.904;2023-06-14T05:50:19;8.18;;;7.47;;
11839;SDS011;5979;50.800;4.904;2023-06-14T05:52:45;7.82;;;7.13;;
11839;SDS011;5979;50.800;4.904;2023-06-14T05:55:11;8.88;;;7.97;;
11839;SDS011;5979;50.800;4.904;2023-06-14T05:57:39;9.25;;;8.40;;
11839;SDS011;5979;50.800;4.904;2023-06-14T06:00:07;8.82;;;8.02;;
11839;SDS011;5979;50.800;4.904;2023-06-14T06:02:36;8.95;;;7.93;;
11839;SDS011;5979;50.800;4.904;2023-06-14T06:05:02;8.82;;;8.02;;
11839;SDS011;5979;50.800;4.904;2023-06-14T06:07:28;10.27;;;9.23;;
11839;SDS011;5979;50.800;4.904;2023-06-14T06:09:54;15.40;;;9.30;;
11839;SDS011;5979;50.800;4.904;2023-06-14T06:12:19;11.23;;;9.18;;
11839;SDS011;5979;50.800;4.904;2023-06-14T06:14:45;10.10;;;8.93;;
11839;SDS011;5979;50.800;4.904;2023-06-14T06:17:10;10.15;;;9.32;;
11839;SDS011;5979;50.800;4.904;2023-06-14T06:19:36;15.07;;;8.98;;
11839;SDS011;5979;50.800;4.904;2023-06-14T06:22:02;9.77;;;8.80;;
11839;SDS011;5979;50.800;4.904;2023-06-14T06:24:31;10.38;;;8.93;;
11839;SDS011;5979;50.800;4.904;2023-06-14T06:26:57;10.23;;;9.20;;
11839;SDS011;5979;50.800;4.904;2023-06-14T06:29:22;12.40;;;8.07;;
11839;SDS011;5979;50.800;4.904;2023-06-14T06:31:48;9.05;;;8.15;;
11839;SDS011;5979;50.800;4.904;2023-06-14T06:34:14;8.85;;;8.05;;
11839;SDS011;5979;50.800;4.904;2023-06-14T06:36:39;9.82;;;8.93;;
11839;SDS011;5979;50.800;4.904;2023-06-14T06:39:05;10.38;;;9.48;;
11839;SDS011;5979;50.800;4.904;2023-06-14T06:41:35;10.50;;;8.73;;
11839;SDS011;5979;50.800;4.904;2023-06-14T06:44:04;9.75;;;8.75;;
11839;SDS011;5979;50.800;4.904;2023-06-14T06:46:31;10.32;;;8.43;;
11839;SDS011;5979;50.800;4.904;2023-06-14T06:48:57;9.80;;;8.23;;
11839;SDS011;5979;50.800;4.904;2023-06-14T06:51:23;13.70;;;9.30;;
11839;SDS011;5979;50.800;4.904;2023-06-14T06:53:53;9.38;;;8.55;;
11839;SDS011;5979;50.800;4.904;2023-06-14T06:56:20;12.68;;;9.10;;
11839;SDS011;5979;50.800;4.904;2023-06-14T06:58:51;9.80;;;8.68;;
11839;SDS011;5979;50.800;4.904;2023-06-14T07:01:17;9.57;;;8.68;;
11839;SDS011;5979;50.800;4.904;2023-06-14T07:03:44;11.52;;;8.02;;
11839;SDS011;5979;50.800;4.904;2023-06-14T07:06:11;10.38;;;8.77;;
11839;SDS011;5979;50.800;4.904;2023-06-14T07:08:37;9.73;;;8.82;;
11839;SDS011;5979;50.800;4.904;2023-06-14T07:11:03;8.75;;;7.95;;
11839;SDS011;5979;50.800;4.904;2023-06-14T07:13:30;10.75;;;8.70;;
11839;SDS011;5979;50.800;4.904;2023-06-14T07:15:57;9.02;;;7.82;;
11839;SDS011;5979;50.800;4.904;2023-06-14T07:18:23;8.93;;;8.07;;
11839;SDS011;5979;50.800;4.904;2023-06-14T07:20:49;8.85;;;8.05;;
11839;SDS011;5979;50.800;4.904;2023-06-14T07:23:15;9.65;;;8.70;;
11839;SDS011;5979;50.800;4.904;2023-06-14T07:25:41;8.18;;;7.47;;
11839;SDS011;5979;50.800;4.904;2023-06-14T07:28:07;8.50;;;7.60;;
11839;SDS011;5979;50.800;4.904;2023-06-14T07:30:32;11.13;;;8.55;;
11839;SDS011;5979;50.800;4.904;2023-06-14T07:32:58;10.00;;;9.18;;
11839;SDS011;5979;50.800;4.904;2023-06-14T07:35:24;9.40;;;8.55;;
11839;SDS011;5979;50.800;4.904;2023-06-14T07:37:49;8.02;;;7.40;;
11839;SDS011;5979;50.800;4.904;2023-06-14T07:40:15;13.60;;;8.05;;
11839;SDS011;5979;50.800;4.904;2023-06-14T07:42:41;9.82;;;8.27;;
11839;SDS011;5979;50.800;4.904;2023-06-14T07:45:07;8.73;;;7.90;;
11839;SDS011;5979;50.800;4.904;2023-06-14T07:47:33;10.32;;;7.88;;
11839;SDS011;5979;50.800;4.904;2023-06-14T07:49:58;9.80;;;7.35;;
11839;SDS011;5979;50.800;4.904;2023-06-14T07:52:24;10.82;;;7.68;;
11839;SDS011;5979;50.800;4.904;2023-06-14T07:54:50;9.55;;;7.72;;
11839;SDS011;5979;50.800;4.904;2023-06-14T07:57:16;8.63;;;7.82;;
11839;SDS011;5979;50.800;4.904;2023-06-14T07:59:42;8.30;;;7.50;;
11839;SDS011;5979;50.800;4.904;2023-06-14T08:02:07;8.68;;;7.80;;
11839;SDS011;5979;50.800;4.904;2023-06-14T08:04:33;9.07;;;8.00;;
11839;SDS011;5979;50.800;4.904;2023-06-14T08:06:59;8.07;;;7.15;;
11839;SDS011;5979;50.800;4.904;2023-06-14T08:09:26;8.50;;;7.60;;
11839;SDS011;5979;50.800;4.904;2023-06-14T08:11:53;9.02;;;8.18;;
11839;SDS011;5979;50.800;4.904;2023-06-14T08:14:19;8.73;;;7.93;;
11839;SDS011;5979;50.800;4.904;2023-06-14T08:16:45;8.20;;;7.57;;
11839;SDS011;5979;50.800;4.904;2023-06-14T08:19:10;8.65;;;7.32;;
11839;SDS011;5979;50.800;4.904;2023-06-14T08:21:36;9.32;;;7.97;;
11839;SDS011;5979;50.800;4.904;2023-06-14T08:24:02;11.10;;;7.63;;
11839;SDS011;5979;50.800;4.904;2023-06-14T08:26:28;8.48;;;7.50;;
11839;SDS011;5979;50.800;4.904;2023-06-14T08:28:55;8.50;;;7.03;;
11839;SDS011;5979;50.800;4.904;2023-06-14T08:31:21;9.02;;;7.57;;
11839;SDS011;5979;50.800;4.904;2023-06-14T08:33:47;12.23;;;7.95;;
11839;SDS011;5979;50.800;4.904;2023-06-14T08:36:13;7.82;;;7.20;;
11839;SDS011;5979;50.800;4.904;2023-06-14T08:38:39;9.20;;;6.78;;
11839;SDS011;5979;50.800;4.904;2023-06-14T08:41:05;7.65;;;6.88;;
11839;SDS011;5979;50.800;4.904;2023-06-14T08:43:31;11.43;;;7.05;;
11839;SDS011;5979;50.800;4.904;2023-06-14T08:46:02;8.85;;;6.97;;
11839;SDS011;5979;50.800;4.904;2023-06-14T08:48:28;8.73;;;7.25;;
11839;SDS011;5979;50.800;4.904;2023-06-14T08:50:59;8.77;;;6.57;;
11839;SDS011;5979;50.800;4.904;2023-06-14T08:53:32;6.53;;;6.03;;
11839;SDS011;5979;50.800;4.904;2023-06-14T08:56:02;10.48;;;6.95;;
11839;SDS011;5979;50.800;4.904;2023-06-14T08:58:30;7.28;;;6.50;;
11839;SDS011;5979;50.800;4.904;2023-06-14T09:01:00;7.40;;;6.72;;
11839;SDS011;5979;50.800;4.904;2023-06-14T09:03:27;8.43;;;7.13;;
11839;SDS011;5979;50.800;4.904;2023-06-14T09:05:59;6.47;;;5.70;;
11839;SDS011;5979;50.800;4.904;2023-06-14T09:08:26;6.90;;;6.15;;
11839;SDS011;5979;50.800;4.904;2023-06-14T09:10:55;9.40;;;6.72;;
11839;SDS011;5979;50.800;4.904;2023-06-14T09:13:21;8.27;;;6.50;;
11839;SDS011;5979;50.800;4.904;2023-06-14T09:15:47;6.85;;;6.15;;
11839;SDS011;5979;50.800;4.904;2023-06-14T09:18:12;6.40;;;5.82;;
11839;SDS011;5979;50.800;4.904;2023-06-14T09:20:38;6.63;;;6.03;;
11839;SDS011;5979;50.800;4.904;2023-06-14T09:23:04;9.73;;;5.80;;
11839;SDS011;5979;50.800;4.904;2023-06-14T09:25:30;6.20;;;5.70;;
11839;SDS011;5979;50.800;4.904;2023-06-14T09:27:56;6.10;;;5.55;;
11839;SDS011;5979;50.800;4.904;2023-06-14T09:30:21;9.68;;;5.70;;
11839;SDS011;5979;50.800;4.904;2023-06-14T09:32:47;8.07;;;6.68;;
11839;SDS011;5979;50.800;4.904;2023-06-14T09:35:14;6.80;;;6.35;;
11839;SDS011;5979;50.800;4.904;2023-06-14T09:37:42;6.57;;;5.28;;
11839;SDS011;5979;50.800;4.904;2023-06-14T09:40:09;7.40;;;5.80;;
11839;SDS011;5979;50.800;4.904;2023-06-14T09:42:35;9.05;;;5.85;;
11839;SDS011;5979;50.800;4.904;2023-06-14T09:45:02;6.10;;;5.55;;
11839;SDS011;5979;50.800;4.904;2023-06-14T09:47:29;6.38;;;5.15;;
11839;SDS011;5979;50.800;4.904;2023-06-14T09:49:54;5.60;;;5.20;;
11839;SDS011;5979;50.800;4.904;2023-06-14T09:52:20;7.13;;;5.65;;
11839;SDS011;5979;50.800;4.904;2023-06-14T09:54:48;7.28;;;5.80;;
11839;SDS011;5979;50.800;4.904;2023-06-14T09:57:15;5.63;;;5.13;;
11839;SDS011;5979;50.800;4.904;2023-06-14T09:59:43;5.25;;;4.75;;
11839;SDS011;5979;50.800;4.904;2023-06-14T10:02:17;6.13;;;5.57;;
11839;SDS011;5979;50.800;4.904;2023-06-14T10:04:46;6.15;;;5.07;;
11839;SDS011;5979;50.800;4.904;2023-06-14T10:07:17;12.27;;;5.78;;
11839;SDS011;5979;50.800;4.904;2023-06-14T10:09:45;6.70;;;6.03;;
11839;SDS011;5979;50.800;4.904;2023-06-14T10:12:15;5.95;;;5.45;;
11839;SDS011;5979;50.800;4.904;2023-06-14T10:14:51;8.35;;;5.53;;
11839;SDS011;5979;50.800;4.904;2023-06-14T10:18:06;6.82;;;5.28;;
11839;SDS011;5979;50.800;4.904;2023-06-14T10:22:58;6.95;;;5.25;;
11839;SDS011;5979;50.800;4.904;2023-06-14T10:25:32;7.72;;;4.85;;
11839;SDS011;5979;50.800;4.904;2023-06-14T10:28:17;6.28;;;4.78;;
11839;SDS011;5979;50.800;4.904;2023-06-14T10:33:32;6.03;;;4.70;;
11839;SDS011;5979;50.800;4.904;2023-06-14T10:36:41;6.40;;;4.35;;
11839;SDS011;5979;50.800;4.904;2023-06-14T10:38:59;4.80;;;4.40;;
11839;SDS011;5979;50.800;4.904;2023-06-14T10:41:28;6.50;;;4.50;;
11839;SDS011;5979;50.800;4.904;2023-06-14T10:46:54;5.30;;;3.88;;
11839;SDS011;5979;50.800;4.904;2023-06-14T10:49:40;5.05;;;4.32;;
11839;SDS011;5979;50.800;4.904;2023-06-14T10:52:11;7.22;;;4.57;;
11839;SDS011;5979;50.800;4.904;2023-06-14T10:57:52;7.60;;;4.20;;
11839;SDS011;5979;50.800;4.904;2023-06-14T11:00:23;7.90;;;4.88;;
11839;SDS011;5979;50.800;4.904;2023-06-14T11:11:08;5.50;;;4.15;;
11839;SDS011;5979;50.800;4.904;2023-06-14T11:13:39;6.68;;;4.05;;
11839;SDS011;5979;50.800;4.904;2023-06-14T11:16:13;6.47;;;3.75;;
11839;SDS011;5979;50.800;4.904;2023-06-14T11:18:40;5.40;;;3.85;;
11839;SDS011;5979;50.800;4.904;2023-06-14T11:21:06;4.30;;;3.90;;
11839;SDS011;5979;50.800;4.904;2023-06-14T11:23:33;5.22;;;3.75;;
11839;SDS011;5979;50.800;4.904;2023-06-14T11:25:59;4.65;;;3.88;;
11839;SDS011;5979;50.800;4.904;2023-06-14T11:28:35;7.43;;;4.25;;
11839;SDS011;5979;50.800;4.904;2023-06-14T11:31:04;6.70;;;3.83;;
11839;SDS011;5979;50.800;4.904;2023-06-14T11:33:29;5.40;;;4.10;;
11839;SDS011;5979;50.800;4.904;2023-06-14T11:35:55;6.68;;;4.22;;
11839;SDS011;5979;50.800;4.904;2023-06-14T11:38:21;4.45;;;4.05;;
11839;SDS011;5979;50.800;4.904;2023-06-14T11:40:47;5.95;;;3.90;;
11839;SDS011;5979;50.800;4.904;2023-06-14T11:43:12;4.32;;;4.00;;
11839;SDS011;5979;50.800;4.904;2023-06-14T11:45:39;7.70;;;4.25;;
11839;SDS011;5979;50.800;4.904;2023-06-14T11:48:05;3.85;;;3.55;;
11839;SDS011;5979;50.800;4.904;2023-06-14T11:50:31;4.90;;;3.90;;
11839;SDS011;5979;50.800;4.904;2023-06-14T11:53:01;4.50;;;4.10;;
11839;SDS011;5979;50.800;4.904;2023-06-14T11:55:38;4.13;;;3.63;;
11839;SDS011;5979;50.800;4.904;2023-06-14T11:58:04;4.70;;;4.30;;
11839;SDS011;5979;50.800;4.904;2023-06-14T12:00:30;4.72;;;4.13;;
11839;SDS011;5979;50.800;4.904;2023-06-14T12:02:56;4.07;;;3.78;;
11839;SDS011;5979;50.800;4.904;2023-06-14T12:05:22;4.10;;;3.80;;
11839;SDS011;5979;50.800;4.904;2023-06-14T12:07:50;6.53;;;4.00;;
11839;SDS011;5979;50.800;4.904;2023-06-14T12:10:18;3.90;;;3.60;;
11839;SDS011;5979;50.800;4.904;2023-06-14T12:12:44;4.05;;;3.58;;
11839;SDS011;5979;50.800;4.904;2023-06-14T12:15:10;3.95;;;3.65;;
11839;SDS011;5979;50.800;4.904;2023-06-14T12:17:37;3.22;;;3.03;;
11839;SDS011;5979;50.800;4.904;2023-06-14T12:20:09;3.97;;;3.35;;
11839;SDS011;5979;50.800;4.904;2023-06-14T12:22:36;4.20;;;3.28;;
11839;SDS011;5979;50.800;4.904;2023-06-14T12:25:05;6.57;;;2.90;;
11839;SDS011;5979;50.800;4.904;2023-06-14T12:27:31;3.50;;;3.20;;
11839;SDS011;5979;50.800;4.904;2023-06-14T12:29:58;3.33;;;2.85;;
11839;SDS011;5979;50.800;4.904;2023-06-14T12:32:28;3.30;;;2.90;;
11839;SDS011;5979;50.800;4.904;2023-06-14T12:34:54;2.90;;;2.50;;
11839;SDS011;5979;50.800;4.904;2023-06-14T12:37:20;2.90;;;2.70;;
11839;SDS011;5979;50.800;4.904;2023-06-14T12:39:45;3.40;;;2.60;;
11839;SDS011;5979;50.800;4.904;2023-06-14T12:42:11;3.10;;;2.42;;
11839;SDS011;5979;50.800;4.904;2023-06-14T12:44:39;3.42;;;2.40;;
11839;SDS011;5979;50.800;4.904;2023-06-14T12:47:06;2.40;;;2.20;;
11839;SDS011;5979;50.800;4.904;2023-06-14T12:49:32;2.85;;;2.20;;
11839;SDS011;5979;50.800;4.904;2023-06-14T12:51:58;2.10;;;2.00;;
11839;SDS011;5979;50.800;4.904;2023-06-14T12:54:24;5.40;;;2.20;;
11839;SDS011;5979;50.800;4.904;2023-06-14T12:56:52;2.15;;;2.00;;
11839;SDS011;5979;50.800;4.904;2023-06-14T12:59:20;4.97;;;1.80;;
11839;SDS011;5979;50.800;4.904;2023-06-14T13:01:45;2.55;;;2.15;;
11839;SDS011;5979;50.800;4.904;2023-06-14T13:04:14;2.65;;;2.00;;
11839;SDS011;5979;50.800;4.904;2023-06-14T13:06:40;4.40;;;2.45;;
11839;SDS011;5979;50.800;4.904;2023-06-14T13:09:06;2.05;;;1.95;;
11839;SDS011;5979;50.800;4.904;2023-06-14T13:11:33;3.42;;;2.25;;
11839;SDS011;5979;50.800;4.904;2023-06-14T13:13:58;2.10;;;2.00;;
11839;SDS011;5979;50.800;4.904;2023-06-14T13:16:24;3.72;;;2.03;;
11839;SDS011;5979;50.800;4.904;2023-06-14T13:18:50;2.35;;;1.75;;
11839;SDS011;5979;50.800;4.904;2023-06-14T13:21:15;3.10;;;2.10;;
11839;SDS011;5979;50.800;4.904;2023-06-14T13:23:41;2.00;;;1.83;;
11839;SDS011;5979;50.800;4.904;2023-06-14T13:26:07;2.65;;;2.15;;
11839;SDS011;5979;50.800;4.904;2023-06-14T13:28:32;1.95;;;1.85;;
11839;SDS011;5979;50.800;4.904;2023-06-14T13:31:00;1.98;;;1.73;;
11839;SDS011;5979;50.800;4.904;2023-06-14T13:33:26;2.47;;;1.90;;
11839;SDS011;5979;50.800;4.904;2023-06-14T13:35:52;2.42;;;2.30;;
11839;SDS011;5979;50.800;4.904;2023-06-14T13:38:18;6.38;;;2.20;;
11839;SDS011;5979;50.800;4.904;2023-06-14T13:40:44;3.60;;;2.10;;
11839;SDS011;5979;50.800;4.904;2023-06-14T13:43:10;4.70;;;2.15;;
11839;SDS011;5979;50.800;4.904;2023-06-14T13:45:36;2.08;;;1.92;;
11839;SDS011;5979;50.800;4.904;2023-06-14T13:48:01;2.35;;;2.15;;
11839;SDS011;5979;50.800;4.904;2023-06-14T13:50:27;3.30;;;2.20;;
11839;SDS011;5979;50.800;4.904;2023-06-14T13:52:53;3.72;;;2.25;;
11839;SDS011;5979;50.800;4.904;2023-06-14T13:55:19;3.85;;;2.10;;
11839;SDS011;5979;50.800;4.904;2023-06-14T13:57:44;1.90;;;1.80;;
11839;SDS011;5979;50.800;4.904;2023-06-14T14:00:10;3.20;;;2.22;;
11839;SDS011;5979;50.800;4.904;2023-06-14T14:02:37;3.45;;;2.17;;
11839;SDS011;5979;50.800;4.904;2023-06-14T14:05:03;2.30;;;2.13;;
11839;SDS011;5979;50.800;4.904;2023-06-14T14:07:29;5.78;;;2.53;;
11839;SDS011;5979;50.800;4.904;2023-06-14T14:09:54;2.33;;;2.20;;
11839;SDS011;5979;50.800;4.904;2023-06-14T14:12:22;3.80;;;2.38;;
11839;SDS011;5979;50.800;4.904;2023-06-14T14:14:48;2.10;;;2.00;;
11839;SDS011;5979;50.800;4.904;2023-06-14T14:17:15;2.85;;;2.50;;
11839;SDS011;5979;50.800;4.904;2023-06-14T14:19:41;2.70;;;2.13;;
11839;SDS011;5979;50.800;4.904;2023-06-14T14:22:06;5.53;;;2.35;;
11839;SDS011;5979;50.800;4.904;2023-06-14T14:24:32;2.28;;;2.08;;
11839;SDS011;5979;50.800;4.904;2023-06-14T14:26:58;4.20;;;2.25;;
11839;SDS011;5979;50.800;4.904;2023-06-14T14:29:25;7.80;;;2.60;;
11839;SDS011;5979;50.800;4.904;2023-06-14T14:31:54;3.95;;;2.33;;
11839;SDS011;5979;50.800;4.904;2023-06-14T14:34:20;3.28;;;2.00;;
11839;SDS011;5979;50.800;4.904;2023-06-14T14:36:45;2.33;;;2.20;;
11839;SDS011;5979;50.800;4.904;2023-06-14T14:39:11;2.60;;;2.38;;
11839;SDS011;5979;50.800;4.904;2023-06-14T14:41:37;2.70;;;2.30;;
11839;SDS011;5979;50.800;4.904;2023-06-14T14:44:03;6.22;;;2.55;;
11839;SDS011;5979;50.800;4.904;2023-06-14T14:46:29;5.05;;;2.35;;
11839;SDS011;5979;50.800;4.904;2023-06-14T14:48:55;2.95;;;2.42;;
11839;SDS011;5979;50.800;4.904;2023-06-14T14:51:20;2.40;;;2.17;;
11839;SDS011;5979;50.800;4.904;2023-06-14T14:53:46;2.78;;;2.50;;
11839;SDS011;5979;50.800;4.904;2023-06-14T14:56:12;2.88;;;2.58;;
11839;SDS011;5979;50.800;4.904;2023-06-14T14:58:38;4.50;;;2.40;;
11839;SDS011;5979;50.800;4.904;2023-06-14T15:01:03;5.18;;;2.38;;
11839;SDS011;5979;50.800;4.904;2023-06-14T15:03:30;2.58;;;2.38;;
11839;SDS011;5979;50.800;4.904;2023-06-14T15:05:56;4.97;;;2.28;;
11839;SDS011;5979;50.800;4.904;2023-06-14T15:08:22;2.25;;;2.00;;
11839;SDS011;5979;50.800;4.904;2023-06-14T15:10:48;2.53;;;2.30;;
11839;SDS011;5979;50.800;4.904;2023-06-14T15:13:14;3.00;;;2.20;;
11839;SDS011;5979;50.800;4.904;2023-06-14T15:15:39;2.83;;;2.58;;
11839;SDS011;5979;50.800;4.904;2023-06-14T15:18:05;4.43;;;2.53;;
11839;SDS011;5979;50.800;4.904;2023-06-14T15:20:31;2.53;;;2.40;;
11839;SDS011;5979;50.800;4.904;2023-06-14T15:22:57;3.85;;;2.10;;
11839;SDS011;5979;50.800;4.904;2023-06-14T15:25:25;2.72;;;2.50;;
11839;SDS011;5979;50.800;4.904;2023-06-14T15:27:54;3.92;;;2.47;;